Time;durP1;ratioP1;P1;durP2;ratioP2;P2;SDS_P1;SDS_P2;PMS_P1;PMS_P2;Temp;Humidity;BMP_temperature;BMP_pressure;BME280_temperature;BME280_humidity;BME280_pressure;Samples;Min_cycle;Max_cycle;Signal;HPM_P1;HPM_P2
2021/12/30 00:01:43;;;;;;;49.05;21.02;;;-1.40;74.30;;;;;;5055813;28;20033;-36
2021/12/30 00:04:09;;;;;;;46.63;21.45;;;-1.40;74.30;;;;;;5055779;28;20447;-36
2021/12/30 00:06:40;;;;;;;51.33;22.38;;;-1.40;74.30;;;;;;5055614;28;20464;-36
2021/12/30 00:09:10;;;;;;;42.97;19.88;;;-1.40;74.20;;;;;;5059633;28;20303;-36
2021/12/30 00:11:36;;;;;;;43.00;20.55;;;-1.40;74.30;;;;;;5059874;28;20037;-39
2021/12/30 00:14:03;;;;;;;49.38;22.70;;;-1.40;74.50;;;;;;5059869;28;20044;-37
2021/12/30 00:16:29;;;;;;;45.22;23.20;;;-1.40;74.50;;;;;;5060089;28;20419;-37
2021/12/30 00:18:55;;;;;;;42.75;20.25;;;-1.40;74.50;;;;;;5059861;28;20041;-36
2021/12/30 00:21:23;;;;;;;45.97;20.77;;;-1.40;74.50;;;;;;5059634;28;20021;-39
2021/12/30 00:23:49;;;;;;;44.88;21.17;;;-1.30;74.50;;;;;;5059678;28;20080;-36
2021/12/30 00:26:14;;;;;;;44.30;21.10;;;-1.30;74.50;;;;;;5059520;28;20067;-39
2021/12/30 00:28:40;;;;;;;43.85;20.95;;;-1.30;74.50;;;;;;5059759;28;20037;-36
2021/12/30 00:31:06;;;;;;;45.63;21.10;;;-1.30;74.50;;;;;;5059689;28;20032;-36
2021/12/30 00:33:34;;;;;;;45.40;20.83;;;-1.30;74.50;;;;;;5059590;28;20029;-37
2021/12/30 00:36:10;;;;;;;46.33;20.63;;;-1.30;74.40;;;;;;5059247;28;20302;-37
2021/12/30 00:38:37;;;;;;;45.03;20.73;;;-1.30;74.50;;;;;;5059533;28;20120;-39
2021/12/30 00:41:03;;;;;;;42.80;20.25;;;-1.40;74.40;;;;;;5059192;28;20457;-37
2021/12/30 00:43:29;;;;;;;46.95;20.50;;;-1.40;74.40;;;;;;5059431;28;20072;-39
2021/12/30 00:45:55;;;;;;;46.30;20.63;;;-1.40;74.40;;;;;;5059382;28;20025;-37
2021/12/30 00:48:20;;;;;;;41.22;18.85;;;-1.40;74.50;;;;;;5059192;28;20428;-36
2021/12/30 00:50:47;;;;;;;42.95;20.58;;;-1.40;74.60;;;;;;5059072;28;20036;-37
2021/12/30 00:53:14;;;;;;;37.97;20.02;;;-1.40;75.20;;;;;;5059041;28;20025;-36
2021/12/30 00:55:40;;;;;;;38.40;18.17;;;-1.40;74.70;;;;;;5058795;28;20063;-38
2021/12/30 00:58:08;;;;;;;42.97;20.80;;;-1.30;74.80;;;;;;5059293;28;20480;-38
2021/12/30 01:00:37;;;;;;;42.08;20.77;;;-1.30;74.70;;;;;;5058666;28;20045;-39
2021/12/30 01:03:03;;;;;;;45.95;19.90;;;-1.30;74.70;;;;;;5059199;28;20425;-39
2021/12/30 01:05:29;;;;;;;41.75;19.67;;;-1.30;74.60;;;;;;5058600;28;20041;-36
2021/12/30 01:07:56;;;;;;;44.47;21.20;;;-1.20;74.50;;;;;;5059135;28;20075;-36
2021/12/30 01:10:25;;;;;;;41.10;19.92;;;-1.20;74.40;;;;;;5058823;28;20429;-36
2021/12/30 01:12:54;;;;;;;43.35;20.40;;;-1.20;74.40;;;;;;5058630;28;20071;-39
2021/12/30 01:15:23;;;;;;;39.05;19.40;;;-1.20;74.90;;;;;;5059160;28;20025;-36
2021/12/30 01:18:19;;;;;;;42.40;20.25;;;-1.10;74.40;;;;;;5059109;28;20044;-39
2021/12/30 01:20:41;;;;;;;43.22;19.17;;;-1.20;74.20;;;;;;5057201;28;20372;-36
2021/12/30 01:23:06;;;;;;;41.50;19.95;;;-1.20;74.10;;;;;;5058772;28;20079;-36
2021/12/30 01:25:32;;;;;;;44.67;19.52;;;-1.10;74.10;;;;;;5058241;28;20029;-36
2021/12/30 01:27:58;;;;;;;40.33;18.90;;;-1.20;73.90;;;;;;5058305;28;20029;-39
2021/12/30 01:30:24;;;;;;;40.78;19.58;;;-1.20;73.90;;;;;;5058412;28;20188;-39
2021/12/30 01:32:49;;;;;;;36.45;17.77;;;-1.20;74.10;;;;;;5058395;28;20469;-39
2021/12/30 01:35:22;;;;;;;39.38;18.23;;;-1.20;74.20;;;;;;5058597;28;20053;-39
2021/12/30 01:37:49;;;;;;;37.00;17.15;;;-1.20;74.30;;;;;;5058623;28;20037;-39
2021/12/30 01:40:16;;;;;;;37.15;17.85;;;-1.20;74.30;;;;;;5058394;28;20022;-36
2021/12/30 01:42:42;;;;;;;37.97;18.23;;;-1.20;74.20;;;;;;5058123;28;20041;-37
2021/12/30 01:45:09;;;;;;;37.40;18.90;;;-1.10;74.20;;;;;;5058498;28;20135;-36
2021/12/30 01:47:37;;;;;;;42.67;20.10;;;-1.10;74.10;;;;;;5058112;28;20033;-37
2021/12/30 01:50:04;;;;;;;36.90;19.48;;;-1.10;74.10;;;;;;5058230;28;20403;-39
2021/12/30 01:52:30;;;;;;;40.75;19.65;;;-1.10;73.90;;;;;;5057795;28;20043;-39
2021/12/30 01:54:55;;;;;;;40.58;19.85;;;-1.10;73.80;;;;;;5057401;28;20021;-36
2021/12/30 01:57:21;;;;;;;41.92;20.00;;;-1.10;73.80;;;;;;5058261;28;20063;-37
2021/12/30 01:59:47;;;;;;;42.28;20.17;;;-1.10;73.80;;;;;;5057931;28;20025;-39
2021/12/30 02:02:13;;;;;;;40.47;19.90;;;-1.10;73.70;;;;;;5058030;28;20029;-39
2021/12/30 02:04:39;;;;;;;51.05;20.88;;;-1.10;73.80;;;;;;5057943;28;20413;-36
2021/12/30 02:07:05;;;;;;;40.72;20.50;;;-1.10;73.80;;;;;;5057877;28;20037;-36
2021/12/30 02:09:31;;;;;;;43.97;21.15;;;-1.10;73.80;;;;;;5057787;28;20120;-39
2021/12/30 02:11:57;;;;;;;41.63;20.17;;;-1.10;73.80;;;;;;5057419;28;20037;-39
2021/12/30 02:14:23;;;;;;;39.05;18.80;;;-1.10;73.90;;;;;;5057765;28;20109;-36
2021/12/30 02:16:49;;;;;;;41.15;19.65;;;-1.10;74.00;;;;;;5057633;28;20037;-39
2021/12/30 02:19:15;;;;;;;36.95;18.58;;;-1.10;74.00;;;;;;5057606;28;20112;-39
2021/12/30 02:21:40;;;;;;;44.45;20.70;;;-1.10;74.10;;;;;;5057539;28;20036;-39
2021/12/30 02:24:06;;;;;;;36.03;18.45;;;-1.10;74.10;;;;;;5057666;28;20318;-36
2021/12/30 02:26:33;;;;;;;42.67;20.67;;;-1.10;74.00;;;;;;5057569;28;20041;-39
2021/12/30 02:28:58;;;;;;;42.30;20.02;;;-1.10;74.00;;;;;;5057063;28;20397;-36
2021/12/30 02:31:27;;;;;;;42.35;20.27;;;-1.00;73.90;;;;;;5057308;28;20061;-37
2021/12/30 02:33:55;;;;;;;42.97;20.88;;;-1.00;73.80;;;;;;5057352;28;20033;-36
2021/12/30 02:36:26;;;;;;;42.95;20.83;;;-1.00;73.70;;;;;;5057166;28;20083;-39
2021/12/30 02:38:51;;;;;;;47.15;21.27;;;-1.00;73.70;;;;;;5057133;28;20321;-37
2021/12/30 02:41:19;;;;;;;37.20;19.27;;;-1.00;73.80;;;;;;5057501;28;20041;-37
2021/12/30 02:43:49;;;;;;;46.53;21.58;;;-1.00;73.80;;;;;;5055869;28;20321;-36
2021/12/30 02:46:21;;;;;;;43.05;20.85;;;-1.10;73.70;;;;;;5057249;28;20431;-39
2021/12/30 02:48:47;;;;;;;43.33;20.55;;;-1.10;73.70;;;;;;5057070;28;20445;-36
2021/12/30 02:51:13;;;;;;;42.95;20.60;;;-1.10;73.80;;;;;;5057077;28;20037;-40
2021/12/30 02:53:39;;;;;;;43.85;21.20;;;-1.10;73.80;;;;;;5056958;28;20159;-37
2021/12/30 02:56:06;;;;;;;45.83;21.73;;;-1.10;73.90;;;;;;5056618;28;20068;-37
2021/12/30 02:58:32;;;;;;;45.42;21.40;;;-1.10;73.90;;;;;;5057038;28;20037;-39
2021/12/30 03:01:01;;;;;;;46.63;22.55;;;-1.10;73.90;;;;;;5056700;28;20033;-39
2021/12/30 03:03:27;;;;;;;48.40;22.00;;;-1.10;73.80;;;;;;5056713;28;20033;-37
2021/12/30 03:06:02;;;;;;;45.00;21.95;;;-1.10;73.80;;;;;;5056337;28;20032;-36
2021/12/30 03:08:28;;;;;;;43.50;21.38;;;-1.10;73.90;;;;;;5056742;28;20029;-38
2021/12/30 03:10:55;;;;;;;41.85;21.15;;;-1.10;73.90;;;;;;5056574;28;20033;-39
2021/12/30 03:13:30;;;;;;;42.53;21.40;;;-1.10;73.90;;;;;;5056428;28;20087;-36
2021/12/30 03:16:00;;;;;;;49.30;22.05;;;-1.00;73.90;;;;;;5056372;28;20037;-39
2021/12/30 03:18:26;;;;;;;52.15;23.33;;;-1.00;73.90;;;;;;5056619;28;20036;-37
2021/12/30 03:20:52;;;;;;;48.78;22.52;;;-1.00;73.70;;;;;;5056349;28;20060;-37
2021/12/30 03:23:18;;;;;;;46.63;23.05;;;-1.00;73.70;;;;;;5056738;28;20029;-37
2021/12/30 03:25:44;;;;;;;42.88;22.08;;;-1.00;73.60;;;;;;5055951;28;20037;-39
2021/12/30 03:28:09;;;;;;;43.22;22.50;;;-1.00;73.70;;;;;;5056526;28;20033;-39
2021/12/30 03:30:35;;;;;;;40.20;21.45;;;-1.00;73.60;;;;;;5055817;28;20416;-39
2021/12/30 03:33:01;;;;;;;45.00;22.48;;;-1.00;73.60;;;;;;5056176;28;20099;-39
2021/12/30 03:35:27;;;;;;;48.92;22.80;;;-1.00;73.60;;;;;;5055935;28;20032;-36
2021/12/30 03:37:52;;;;;;;44.08;20.27;;;-1.00;73.50;;;;;;5056044;28;20104;-37
2021/12/30 03:40:18;;;;;;;40.80;19.33;;;-1.00;73.60;;;;;;5056284;28;20052;-39
2021/12/30 03:42:44;;;;;;;37.85;20.52;;;-1.00;73.60;;;;;;5055668;28;20029;-36
2021/12/30 03:45:13;;;;;;;44.67;22.35;;;-1.00;73.80;;;;;;5055891;28;20326;-36
2021/12/30 03:47:42;;;;;;;49.95;23.17;;;-1.00;73.70;;;;;;5056163;28;20068;-36
2021/12/30 03:50:17;;;;;;;41.33;21.48;;;-1.00;73.60;;;;;;5056156;28;20032;-36
2021/12/30 03:52:43;;;;;;;45.33;21.67;;;-1.00;73.60;;;;;;5055913;28;20044;-38
2021/12/30 03:55:09;;;;;;;43.58;22.55;;;-0.90;73.70;;;;;;5055688;28;20049;-39
2021/12/30 03:57:36;;;;;;;41.75;20.33;;;-0.90;73.60;;;;;;5056275;28;20044;-39
2021/12/30 04:00:04;;;;;;;43.38;21.73;;;-0.90;73.60;;;;;;5056064;28;20111;-36
2021/12/30 04:02:30;;;;;;;45.90;21.02;;;-0.90;73.50;;;;;;5055853;28;20033;-36
2021/12/30 04:04:56;;;;;;;44.45;21.67;;;-0.90;73.40;;;;;;5055947;28;20432;-39
2021/12/30 04:07:21;;;;;;;42.20;20.50;;;-0.90;73.30;;;;;;5055994;28;20516;-36
2021/12/30 04:09:47;;;;;;;41.55;21.15;;;-0.90;73.40;;;;;;5055816;28;20029;-37
2021/12/30 04:12:13;;;;;;;47.95;21.10;;;-1.00;73.40;;;;;;5055782;28;20029;-38
2021/12/30 04:14:39;;;;;;;46.13;22.20;;;-1.00;73.40;;;;;;5055778;28;20029;-37
2021/12/30 04:17:05;;;;;;;44.40;23.23;;;-1.00;73.40;;;;;;5055853;28;20026;-39
2021/12/30 04:19:30;;;;;;;49.25;22.92;;;-1.00;73.50;;;;;;5055436;28;20072;-36
2021/12/30 04:21:58;;;;;;;50.75;22.70;;;-1.00;73.50;;;;;;5055703;28;20068;-39
2021/12/30 04:24:24;;;;;;;46.45;21.48;;;-1.00;73.40;;;;;;5055674;28;20128;-36
2021/12/30 04:26:50;;;;;;;46.17;22.38;;;-1.00;73.40;;;;;;5055782;28;20087;-37
2021/12/30 04:29:20;;;;;;;42.53;21.63;;;-1.00;73.40;;;;;;5055566;28;20082;-36
2021/12/30 04:31:46;;;;;;;43.28;21.20;;;-1.10;73.50;;;;;;5055626;28;20078;-37
2021/12/30 04:34:13;;;;;;;44.47;20.58;;;-1.10;73.50;;;;;;5055291;28;20117;-36
2021/12/30 04:36:39;;;;;;;44.70;21.80;;;-1.10;73.60;;;;;;5055854;28;20029;-39
2021/12/30 04:39:05;;;;;;;44.58;20.10;;;-1.10;73.60;;;;;;5055631;28;20415;-36
2021/12/30 04:41:31;;;;;;;43.72;22.13;;;-1.10;73.40;;;;;;5055743;28;20043;-37
2021/12/30 04:43:57;;;;;;;39.58;19.52;;;-1.10;73.40;;;;;;5055294;28;20380;-36
2021/12/30 04:46:22;;;;;;;42.00;20.92;;;-1.10;73.60;;;;;;5055544;28;20049;-37
2021/12/30 04:48:49;;;;;;;46.13;22.23;;;-1.20;73.70;;;;;;5055302;28;20107;-36
2021/12/30 04:51:16;;;;;;;43.03;20.42;;;-1.10;73.80;;;;;;5055470;28;20025;-39
2021/12/30 04:53:42;;;;;;;44.03;19.70;;;-1.10;73.80;;;;;;5056554;28;20031;-36
2021/12/30 04:56:08;;;;;;;44.72;20.92;;;-1.10;73.80;;;;;;5058567;28;20056;-37
2021/12/30 04:58:34;;;;;;;43.47;20.23;;;-1.10;73.70;;;;;;5059051;28;20025;-36
2021/12/30 05:01:00;;;;;;;43.90;20.60;;;-1.10;73.80;;;;;;5058853;28;20041;-36
2021/12/30 05:03:26;;;;;;;44.97;22.52;;;-1.10;73.80;;;;;;5059167;28;20090;-36
2021/12/30 05:05:53;;;;;;;52.13;24.15;;;-1.10;73.70;;;;;;5058913;28;20025;-38
2021/12/30 05:08:21;;;;;;;49.05;20.42;;;-1.10;73.70;;;;;;5058913;28;20029;-37
2021/12/30 05:10:47;;;;;;;42.95;21.17;;;-1.10;73.70;;;;;;5058816;28;20029;-38
2021/12/30 05:13:13;;;;;;;37.10;19.05;;;-1.10;73.80;;;;;;5058585;28;20029;-37
2021/12/30 05:15:40;;;;;;;39.88;19.77;;;-1.10;73.90;;;;;;5058466;28;20033;-36
2021/12/30 05:18:10;;;;;;;40.33;19.40;;;-1.10;73.90;;;;;;5058627;28;20025;-39
2021/12/30 05:20:38;;;;;;;39.60;19.40;;;-1.10;73.80;;;;;;5058426;28;20056;-40
2021/12/30 05:23:04;;;;;;;41.13;18.85;;;-1.10;73.80;;;;;;5058699;28;20029;-37
2021/12/30 05:25:31;;;;;;;45.53;20.88;;;-1.00;73.80;;;;;;5058192;28;20068;-39
2021/12/30 05:27:57;;;;;;;41.42;20.27;;;-1.10;73.70;;;;;;5058614;28;20385;-38
2021/12/30 05:30:23;;;;;;;43.55;20.83;;;-1.10;73.80;;;;;;5058221;28;20033;-36
2021/12/30 05:32:51;;;;;;;43.17;21.02;;;-1.00;73.90;;;;;;5058074;28;20036;-39
2021/12/30 05:35:17;;;;;;;46.85;22.40;;;-1.00;73.80;;;;;;5058400;28;20033;-36
2021/12/30 05:37:43;;;;;;;45.15;21.90;;;-1.10;73.60;;;;;;5058530;28;20382;-38
2021/12/30 05:40:12;;;;;;;43.20;20.88;;;-1.10;73.60;;;;;;5058364;28;20132;-36
2021/12/30 05:42:38;;;;;;;47.47;21.65;;;-1.10;73.70;;;;;;5058100;28;20029;-39
2021/12/30 05:45:05;;;;;;;45.45;22.13;;;-1.20;73.80;;;;;;5058220;28;20037;-38
2021/12/30 05:47:31;;;;;;;48.67;21.38;;;-1.20;73.80;;;;;;5057917;28;20029;-37
2021/12/30 05:49:56;;;;;;;45.75;22.33;;;-1.20;73.80;;;;;;5057977;28;20055;-36
2021/12/30 05:52:22;;;;;;;41.72;20.45;;;-1.20;74.00;;;;;;5057742;28;20053;-38
2021/12/30 05:54:48;;;;;;;42.30;19.70;;;-1.20;74.10;;;;;;5057626;28;20025;-40
2021/12/30 05:57:14;;;;;;;52.80;21.95;;;-1.20;74.00;;;;;;5057775;28;20063;-39
2021/12/30 05:59:39;;;;;;;45.65;21.02;;;-1.20;74.00;;;;;;5057577;28;20313;-39
2021/12/30 06:02:05;;;;;;;39.47;20.20;;;-1.20;74.00;;;;;;5057516;28;20107;-39
2021/12/30 06:04:31;;;;;;;51.08;22.30;;;-1.20;74.00;;;;;;5057643;28;20124;-41
2021/12/30 06:06:57;;;;;;;40.25;20.00;;;-1.20;74.00;;;;;;5057286;28;20116;-36
2021/12/30 06:09:25;;;;;;;43.15;21.85;;;-1.20;74.00;;;;;;5057512;28;20112;-38
2021/12/30 06:11:51;;;;;;;42.78;20.98;;;-1.20;74.10;;;;;;5057413;28;20033;-37
2021/12/30 06:14:17;;;;;;;41.42;20.63;;;-1.10;74.10;;;;;;5057401;28;20073;-36
2021/12/30 06:16:43;;;;;;;41.33;20.20;;;-1.10;74.10;;;;;;5057506;28;20068;-39
2021/12/30 06:19:08;;;;;;;43.10;19.50;;;-1.10;74.00;;;;;;5056986;28;20036;-37
2021/12/30 06:21:34;;;;;;;38.15;19.55;;;-1.10;73.90;;;;;;5057097;28;20060;-37
2021/12/30 06:24:00;;;;;;;47.88;19.77;;;-1.10;74.00;;;;;;5057184;28;20039;-39
2021/12/30 06:26:25;;;;;;;42.58;20.05;;;-1.10;74.00;;;;;;5057304;28;20339;-38
2021/12/30 06:28:51;;;;;;;44.40;21.30;;;-1.10;74.00;;;;;;5057191;28;20074;-37
2021/12/30 06:31:17;;;;;;;54.97;25.27;;;-1.10;73.80;;;;;;5057323;28;20029;-39
2021/12/30 06:33:42;;;;;;;46.80;22.88;;;-1.10;73.90;;;;;;5056865;28;20106;-36
2021/12/30 06:36:09;;;;;;;40.72;20.92;;;-1.10;74.00;;;;;;5056817;28;20143;-36
2021/12/30 06:38:35;;;;;;;47.58;21.98;;;-1.10;73.90;;;;;;5057275;28;20028;-36
2021/12/30 06:41:02;;;;;;;50.97;22.92;;;-1.10;73.90;;;;;;5056898;28;20059;-36
2021/12/30 06:43:27;;;;;;;43.63;21.25;;;-1.10;73.90;;;;;;5057221;28;20104;-39
2021/12/30 06:45:53;;;;;;;44.65;21.30;;;-1.00;74.00;;;;;;5056390;28;20124;-40
2021/12/30 06:48:19;;;;;;;50.28;22.88;;;-1.00;73.90;;;;;;5057091;28;20367;-40
2021/12/30 06:50:52;;;;;;;46.58;22.90;;;-1.00;73.70;;;;;;5056644;28;20436;-39
2021/12/30 06:53:20;;;;;;;48.03;21.52;;;-1.00;73.70;;;;;;5056784;28;20025;-39
2021/12/30 06:55:46;;;;;;;44.58;22.27;;;-0.90;73.70;;;;;;5056072;28;20052;-37
2021/12/30 06:58:12;;;;;;;44.45;22.45;;;-0.90;73.50;;;;;;5056411;28;20098;-36
2021/12/30 07:00:38;;;;;;;44.58;21.33;;;-0.90;73.30;;;;;;5056063;28;20162;-40
2021/12/30 07:03:05;;;;;;;47.88;23.52;;;-0.90;73.10;;;;;;5056509;28;20021;-39
2021/12/30 07:05:31;;;;;;;45.83;22.60;;;-0.90;73.20;;;;;;5056407;28;20060;-40
2021/12/30 07:07:57;;;;;;;43.20;21.75;;;-0.90;73.30;;;;;;5056270;28;20021;-39
2021/12/30 07:10:23;;;;;;;46.42;23.50;;;-0.90;73.30;;;;;;5056110;28;20409;-37
2021/12/30 07:12:49;;;;;;;47.42;21.85;;;-0.90;73.40;;;;;;5056572;28;20056;-37
2021/12/30 07:15:14;;;;;;;45.00;21.20;;;-0.90;73.30;;;;;;5056438;28;20037;-37
2021/12/30 07:17:40;;;;;;;44.75;21.27;;;-0.80;73.20;;;;;;5055421;28;20033;-37
2021/12/30 07:20:08;;;;;;;42.78;20.80;;;-0.80;73.30;;;;;;5056399;28;20086;-39
2021/12/30 07:22:34;;;;;;;43.70;21.85;;;-0.80;73.30;;;;;;5056019;28;20050;-37
2021/12/30 07:24:59;;;;;;;51.10;23.20;;;-0.80;73.40;;;;;;5056153;28;20033;-39
2021/12/30 07:27:25;;;;;;;43.35;20.92;;;-0.70;73.50;;;;;;5055926;28;20060;-37
2021/12/30 07:29:51;;;;;;;48.13;21.13;;;-0.70;73.40;;;;;;5055912;28;20025;-47
2021/12/30 07:32:17;;;;;;;49.20;22.17;;;-0.70;73.40;;;;;;5055758;28;20122;-38
2021/12/30 07:34:42;;;;;;;46.53;22.50;;;-0.60;73.30;;;;;;5056171;28;20063;-37
2021/12/30 07:37:08;;;;;;;44.40;21.80;;;-0.60;73.20;;;;;;5055866;28;20383;-38
2021/12/30 07:39:34;;;;;;;44.60;23.08;;;-0.60;73.10;;;;;;5055729;28;20029;-37
2021/12/30 07:41:59;;;;;;;39.63;21.15;;;-0.60;73.10;;;;;;5056009;28;20048;-37
2021/12/30 07:44:25;;;;;;;42.33;21.15;;;-0.50;73.00;;;;;;5055615;28;20115;-38
2021/12/30 07:46:50;;;;;;;45.08;22.02;;;-0.40;72.90;;;;;;5055845;28;20324;-39
2021/12/30 07:49:16;;;;;;;46.53;23.50;;;-0.40;72.80;;;;;;5055674;28;20029;-39
2021/12/30 07:51:42;;;;;;;46.40;21.77;;;-0.40;72.60;;;;;;5055883;28;20041;-39
2021/12/30 07:54:07;;;;;;;47.92;22.02;;;-0.30;72.70;;;;;;5055593;28;20401;-36
2021/12/30 07:56:33;;;;;;;45.35;20.50;;;-0.30;72.70;;;;;;5055371;28;20516;-36
2021/12/30 07:58:59;;;;;;;45.85;21.27;;;-0.20;72.80;;;;;;5055579;28;20037;-37
2021/12/30 08:01:24;;;;;;;41.30;21.50;;;-0.10;72.70;;;;;;5055467;28;20033;-36
2021/12/30 08:03:50;;;;;;;42.35;21.20;;;0.00;72.50;;;;;;5055378;28;20317;-36
2021/12/30 08:06:16;;;;;;;45.25;22.65;;;0.10;72.10;;;;;;5055399;28;20041;-37
2021/12/30 08:08:41;;;;;;;46.63;23.45;;;0.20;72.10;;;;;;5055388;28;20040;-37
2021/12/30 08:11:07;;;;;;;39.78;19.90;;;0.30;72.00;;;;;;5055390;28;20040;-38
2021/12/30 08:13:33;;;;;;;38.95;19.17;;;0.40;71.70;;;;;;5055400;28;20029;-36
2021/12/30 08:15:59;;;;;;;40.40;20.95;;;0.50;71.20;;;;;;5055054;28;20037;-36
2021/12/30 08:18:24;;;;;;;42.20;20.25;;;0.50;71.00;;;;;;5055767;28;20033;-36
2021/12/30 08:20:50;;;;;;;44.40;21.00;;;0.60;70.90;;;;;;5055190;28;20119;-39
2021/12/30 08:23:15;;;;;;;44.88;21.52;;;0.60;70.80;;;;;;5055690;28;20103;-37
2021/12/30 08:25:43;;;;;;;49.28;23.42;;;0.70;70.50;;;;;;5055225;28;20037;-36
2021/12/30 08:28:09;;;;;;;52.15;23.83;;;0.70;70.10;;;;;;5055918;28;20037;-37
2021/12/30 08:30:34;;;;;;;42.22;20.88;;;0.70;69.90;;;;;;5058977;28;20314;-40
2021/12/30 08:33:00;;;;;;;40.30;20.48;;;0.70;69.50;;;;;;5059046;28;20044;-39
2021/12/30 08:35:26;;;;;;;45.75;22.90;;;0.70;69.20;;;;;;5059578;28;20147;-36
2021/12/30 08:37:54;;;;;;;54.90;28.98;;;0.70;69.00;;;;;;5059063;28;20369;-36
2021/12/30 08:40:20;;;;;;;51.28;28.65;;;0.70;68.70;;;;;;5057919;28;20033;-40
2021/12/30 08:42:46;;;;;;;49.35;24.52;;;0.70;68.50;;;;;;5059076;28;20033;-40
2021/12/30 08:45:13;;;;;;;46.55;22.83;;;0.70;68.60;;;;;;5059048;28;20120;-40
2021/12/30 08:47:39;;;;;;;42.95;21.77;;;0.60;68.40;;;;;;5058911;28;20094;-36
2021/12/30 08:50:10;;;;;;;43.88;19.67;;;0.60;68.40;;;;;;5059083;28;20166;-37
2021/12/30 08:52:36;;;;;;;45.85;21.40;;;0.60;68.40;;;;;;5059008;28;20040;-37
2021/12/30 08:55:06;;;;;;;44.88;22.02;;;0.60;68.50;;;;;;5058719;28;20045;-38
2021/12/30 08:57:33;;;;;;;41.67;21.35;;;0.60;68.60;;;;;;5058940;28;20440;-39
2021/12/30 09:00:00;;;;;;;42.70;20.98;;;0.60;68.90;;;;;;5058865;28;20029;-36
2021/12/30 09:02:26;;;;;;;50.78;22.63;;;0.60;69.00;;;;;;5058555;28;20033;-37
2021/12/30 09:04:52;;;;;;;46.38;22.63;;;0.60;69.10;;;;;;5058854;28;20061;-36
2021/12/30 09:07:18;;;;;;;47.67;23.05;;;0.60;69.00;;;;;;5058710;28;20475;-40
2021/12/30 09:09:45;;;;;;;50.85;23.33;;;0.60;68.80;;;;;;5058028;28;20091;-36
2021/12/30 09:12:11;;;;;;;44.30;22.08;;;0.70;68.90;;;;;;5058264;28;20580;-37
2021/12/30 09:14:37;;;;;;;43.88;21.25;;;0.70;68.90;;;;;;5058269;28;20112;-37
2021/12/30 09:17:04;;;;;;;46.15;22.25;;;0.80;68.70;;;;;;5058363;28;20075;-40
2021/12/30 09:19:29;;;;;;;43.42;21.40;;;0.80;68.40;;;;;;5058057;28;20033;-38
2021/12/30 09:21:56;;;;;;;42.80;22.38;;;0.80;68.20;;;;;;5058223;28;20040;-40
2021/12/30 09:24:23;;;;;;;39.88;19.90;;;0.80;68.30;;;;;;5058446;28;20435;-40
2021/12/30 09:26:48;;;;;;;35.42;19.40;;;0.80;68.40;;;;;;5058362;28;20036;-39
2021/12/30 09:29:14;;;;;;;40.92;21.20;;;0.80;68.30;;;;;;5058433;28;20032;-38
2021/12/30 09:31:43;;;;;;;41.28;20.92;;;0.80;68.20;;;;;;5058225;28;20473;-37
2021/12/30 09:34:09;;;;;;;37.80;19.08;;;0.90;68.30;;;;;;5057972;28;20095;-38
2021/12/30 09:36:36;;;;;;;46.42;20.48;;;0.90;68.40;;;;;;5058025;28;20025;-40
2021/12/30 09:39:05;;;;;;;38.08;19.10;;;0.90;68.40;;;;;;5057989;28;20062;-37
2021/12/30 09:41:30;;;;;;;36.45;19.00;;;1.00;68.50;;;;;;5056894;28;20040;-36
2021/12/30 09:43:56;;;;;;;40.38;19.60;;;1.00;68.40;;;;;;5057739;28;20032;-40
2021/12/30 09:46:23;;;;;;;39.70;20.08;;;1.10;68.40;;;;;;5058093;28;20349;-36
2021/12/30 09:48:49;;;;;;;37.55;18.92;;;1.10;68.20;;;;;;5057920;28;20041;-37
2021/12/30 09:51:15;;;;;;;39.60;19.50;;;1.20;68.10;;;;;;5057750;28;20036;-37
2021/12/30 09:53:41;;;;;;;41.92;20.52;;;1.20;67.80;;;;;;5057793;28;20316;-36
2021/12/30 09:56:06;;;;;;;38.40;19.50;;;1.20;67.70;;;;;;5057411;28;20049;-36
2021/12/30 09:58:32;;;;;;;35.50;19.95;;;1.20;67.60;;;;;;5057985;28;20112;-38
2021/12/30 10:00:59;;;;;;;37.75;19.65;;;1.20;67.40;;;;;;5056068;28;20270;-37
2021/12/30 10:03:27;;;;;;;40.85;21.02;;;1.20;67.50;;;;;;5057619;28;20037;-40
2021/12/30 10:06:03;;;;;;;39.45;20.67;;;1.20;67.50;;;;;;5057124;28;20091;-38
2021/12/30 10:08:29;;;;;;;39.58;20.48;;;1.30;67.50;;;;;;5057388;28;20052;-38
2021/12/30 10:10:57;;;;;;;39.28;19.58;;;1.30;67.60;;;;;;5056990;28;20033;-40
2021/12/30 10:13:29;;;;;;;41.50;21.58;;;1.30;67.50;;;;;;5057408;28;20116;-39
2021/12/30 10:16:11;;;;;;;38.28;20.50;;;1.30;67.30;;;;;;5057198;28;20029;-37
2021/12/30 10:18:50;;;;;;;40.15;20.63;;;1.30;67.20;;;;;;5056142;28;20112;-39
2021/12/30 10:21:40;;;;;;;39.30;19.75;;;1.30;67.30;;;;;;5057658;28;20040;-39
2021/12/30 10:24:09;;;;;;;36.92;19.70;;;1.30;67.20;;;;;;5057211;28;20033;-37
2021/12/30 10:26:49;;;;;;;39.13;21.02;;;1.30;67.10;;;;;;5057150;28;20482;-37
2021/12/30 10:29:15;;;;;;;43.58;22.13;;;1.30;67.00;;;;;;5057138;28;20282;-38
2021/12/30 10:31:43;;;;;;;38.22;20.05;;;1.30;67.30;;;;;;5057065;28;20043;-37
2021/12/30 10:34:10;;;;;;;39.30;20.02;;;1.30;67.20;;;;;;5056953;28;20377;-38
2021/12/30 10:36:40;;;;;;;45.92;23.67;;;1.40;67.30;;;;;;5057310;28;20417;-40
2021/12/30 10:39:18;;;;;;;48.38;25.40;;;1.40;67.30;;;;;;5057104;28;20359;-38
2021/12/30 10:41:46;;;;;;;56.55;26.98;;;1.40;67.50;;;;;;5056787;28;20041;-37
2021/12/30 10:44:12;;;;;;;53.17;27.38;;;1.40;67.60;;;;;;5056973;28;20036;-37
2021/12/30 10:46:37;;;;;;;44.47;22.20;;;1.40;67.60;;;;;;5057086;28;20421;-37
2021/12/30 10:49:08;;;;;;;42.65;23.17;;;1.40;67.70;;;;;;5056257;28;20024;-40
2021/12/30 10:51:37;;;;;;;47.35;23.75;;;1.40;67.50;;;;;;5056642;28;20364;-37
2021/12/30 10:54:13;;;;;;;46.65;22.85;;;1.40;67.70;;;;;;5056261;28;20040;-37
2021/12/30 10:56:46;;;;;;;44.33;21.55;;;1.40;67.70;;;;;;5056102;28;20061;-37
2021/12/30 10:59:27;;;;;;;47.65;23.17;;;1.50;67.60;;;;;;5056291;28;20106;-39
2021/12/30 11:01:57;;;;;;;46.88;22.65;;;1.50;67.50;;;;;;5056607;28;20033;-39
2021/12/30 11:04:38;;;;;;;47.30;21.58;;;1.50;67.50;;;;;;5056512;28;20064;-36
2021/12/30 11:07:05;;;;;;;45.00;21.10;;;1.60;67.20;;;;;;5056313;28;20325;-37
2021/12/30 11:09:31;;;;;;;46.33;22.58;;;1.60;67.60;;;;;;5056299;28;22170;-38
2021/12/30 11:12:00;;;;;;;40.45;21.42;;;1.60;67.20;;;;;;5056588;28;20025;-37
2021/12/30 11:14:31;;;;;;;49.28;24.30;;;1.60;67.30;;;;;;5056165;28;20036;-37
2021/12/30 11:17:01;;;;;;;;;;;1.60;67.10;;;;;;5054298;28;20028;-37
2021/12/30 11:19:29;;;;;;;47.67;23.02;;;1.60;67.10;;;;;;5056323;28;19909;-40
2021/12/30 11:21:59;;;;;;;43.70;21.35;;;1.60;67.10;;;;;;5056063;28;20317;-39
2021/12/30 11:24:29;;;;;;;51.10;22.48;;;1.60;67.00;;;;;;5055846;28;20497;-38
2021/12/30 11:26:56;;;;;;;39.80;20.85;;;1.60;67.00;;;;;;5055637;28;20060;-40
2021/12/30 11:29:22;;;;;;;40.28;21.17;;;1.50;66.70;;;;;;5055901;28;20040;-36
2021/12/30 11:31:48;;;;;;;40.20;20.05;;;1.50;66.60;;;;;;5055134;28;20429;-37
2021/12/30 11:34:14;;;;;;;45.28;22.42;;;1.50;66.70;;;;;;5055590;28;20055;-36
2021/12/30 11:36:40;;;;;;;45.15;21.40;;;1.50;66.70;;;;;;5055850;28;20103;-40
2021/12/30 11:39:16;;;;;;;53.08;24.88;;;1.50;66.80;;;;;;5055581;28;20313;-37
2021/12/30 11:41:47;;;;;;;52.42;26.40;;;1.40;66.70;;;;;;5055292;28;20033;-36
2021/12/30 11:44:32;;;;;;;;;;;1.40;67.10;;;;;;5056095;28;20029;-40
2021/12/30 11:46:58;;;;;;;61.58;24.88;;;1.40;67.30;;;;;;5055534;28;19909;-36
2021/12/30 11:49:23;;;;;;;46.55;22.30;;;1.40;67.30;;;;;;5055663;28;20033;-40
2021/12/30 11:51:52;;;;;;;46.83;23.08;;;1.40;67.40;;;;;;5055189;28;20021;-37
2021/12/30 11:54:38;;;;;;;51.58;23.25;;;1.40;67.30;;;;;;5054113;28;20082;-40
2021/12/30 11:57:22;;;;;;;45.83;23.40;;;1.40;67.20;;;;;;5055336;28;20049;-37
2021/12/30 11:59:48;;;;;;;44.50;22.75;;;1.40;67.00;;;;;;5054968;28;20021;-36
2021/12/30 12:02:45;;;;;;;55.22;25.25;;;1.40;67.10;;;;;;5055222;28;20439;-36
2021/12/30 12:05:40;;;;;;;50.90;23.70;;;1.40;67.20;;;;;;5053540;28;20094;-36
2021/12/30 12:08:12;;;;;;;47.72;23.13;;;1.40;66.90;;;;;;5055541;28;20034;-36
2021/12/30 12:10:40;;;;;;;49.20;22.50;;;1.40;66.80;;;;;;5054849;28;20374;-36
2021/12/30 12:13:44;;;;;;;47.40;24.10;;;1.30;66.90;;;;;;5055046;28;20083;-40
2021/12/30 12:16:12;;;;;;;50.63;22.60;;;1.30;67.10;;;;;;5055444;28;20052;-39
2021/12/30 12:18:58;;;;;;;50.42;25.08;;;1.30;67.20;;;;;;5055141;28;20039;-40
2021/12/30 12:21:41;;;;;;;48.50;23.65;;;1.30;67.20;;;;;;5054268;28;20326;-40
2021/12/30 12:24:21;;;;;;;50.30;24.70;;;1.20;67.00;;;;;;5055184;28;20401;-40
2021/12/30 12:26:52;;;;;;;43.35;22.90;;;1.20;67.00;;;;;;5055306;28;20029;-40
2021/12/30 12:29:22;;;;;;;49.92;22.17;;;1.20;67.00;;;;;;5055186;28;20045;-37
2021/12/30 12:32:03;;;;;;;50.45;23.48;;;1.10;67.30;;;;;;5054996;28;20697;-37
2021/12/30 12:34:33;;;;;;;;;;;1.10;67.50;;;;;;5055570;28;20108;-37